Time;durP1;ratioP1;P1;durP2;ratioP2;P2;SDS_P1;SDS_P2;PMS_P1;PMS_P2;Temp;Humidity;BMP_temperature;BMP_pressure;BME280_temperature;BME280_humidity;BME280_pressure;Samples;Min_cycle;Max_cycle;Signal;HPM_P1;HPM_P2
2023/06/17 00:01:42;;;;;;;;;;;;;;;16.62;50.72;101669.50;5105711;28;19928;-57
2023/06/17 00:04:08;;;;;;;;;;;;;;;16.59;51.85;101672.06;5094109;28;20389;-57
2023/06/17 00:06:33;;;;;;;;;;;;;;;16.55;51.79;101671.13;5115324;27;19915;-56
2023/06/17 00:08:59;;;;;;;;;;;;;;;16.53;51.65;101678.03;5125478;27;19947;-57
2023/06/17 00:11:28;;;;;;;;;;;;;;;16.49;52.48;101675.34;5109725;28;19915;-56
2023/06/17 00:13:54;;;;;;;;;;;;;;;16.44;52.14;101674.38;5102767;28;20419;-57
2023/06/17 00:16:20;;;;;;;;;;;;;;;16.36;52.93;101663.88;5109740;27;19919;-57
2023/06/17 00:18:47;;;;;;;;;;;;;;;16.32;53.90;101654.31;5100907;28;19948;-59
2023/06/17 00:21:12;;;;;;;;;;;;;;;16.27;54.10;101650.78;5107214;27;19915;-58
2023/06/17 00:23:38;;;;;;;;;;;;;;;16.24;55.29;101654.16;5093869;28;20346;-45
2023/06/17 00:26:03;;;;;;;;;;;;;;;16.23;54.69;101649.81;5107002;28;19946;-45
2023/06/17 00:28:28;;;;;;;;;;;;;;;16.20;54.54;101651.47;5104837;28;19915;-45
2023/06/17 00:30:53;;;;;;;;;;;;;;;16.15;54.98;101646.25;5096027;28;20420;-45
2023/06/17 00:33:19;;;;;;;;;;;;;;;16.12;55.33;101650.47;5103141;27;19942;-46
2023/06/17 00:35:44;;;;;;;;;;;;;;;16.08;55.66;101653.03;5117089;27;19904;-46
2023/06/17 00:38:09;;;;;;;;;;;;;;;16.04;53.99;101651.22;5101442;28;19912;-46
2023/06/17 00:40:35;;;;;;;;;;;;;;;16.00;54.49;101659.78;5108908;28;19917;-48
2023/06/17 00:43:00;;;;;;;;;;;;;;;15.95;55.09;101653.63;5115168;27;19916;-48
2023/06/17 00:45:25;;;;;;;;;;;;;;;15.87;55.48;101660.41;5117277;27;19922;-44
2023/06/17 00:47:51;;;;;;;;;;;;;;;15.79;55.65;101652.50;5117599;27;19923;-49
2023/06/17 00:50:17;;;;;;;;;;;;;;;15.72;55.76;101654.94;5117294;27;19960;-46
2023/06/17 00:52:44;;;;;;;;;;;;;;;15.65;56.47;101653.94;5116731;27;19922;-45
2023/06/17 00:55:10;;;;;;;;;;;;;;;15.61;57.38;101654.69;5122283;27;19943;-47
2023/06/17 00:57:37;;;;;;;;;;;;;;;15.59;58.35;101652.91;5113653;28;19969;-48
2023/06/17 01:00:06;;;;;;;;;;;;;;;15.54;57.86;101653.69;5114328;28;20434;-45
2023/06/17 01:02:32;;;;;;;;;;;;;;;15.47;58.53;101659.59;5100448;28;19916;-45
2023/06/17 01:04:58;;;;;;;;;;;;;;;15.42;57.34;101655.16;5104636;28;19999;-48
2023/06/17 01:07:30;;;;;;;;;;;;;;;15.35;59.29;101651.56;5107483;28;19919;-47
2023/06/17 01:09:56;;;;;;;;;;;;;;;15.32;59.24;101648.03;5101735;28;19912;-48
2023/06/17 01:12:24;;;;;;;;;;;;;;;15.31;59.47;101654.94;5097823;28;19960;-50
2023/06/17 01:14:50;;;;;;;;;;;;;;;15.26;60.00;101646.19;5099613;28;20422;-46
2023/06/17 01:17:17;;;;;;;;;;;;;;;15.23;59.18;101643.53;5101046;28;19999;-46
2023/06/17 01:19:48;;;;;;;;;;;;;;;15.22;59.78;101641.75;5096594;28;20543;-46
2023/06/17 01:22:15;;;;;;;;;;;;;;;15.17;59.30;101641.69;5110645;28;20394;-48
2023/06/17 01:24:40;;;;;;;;;;;;;;;15.12;59.44;101645.03;5103846;28;20020;-47
2023/06/17 01:27:06;;;;;;;;;;;;;;;15.06;59.41;101639.72;5095462;28;19951;-56
2023/06/17 01:29:38;;;;;;;;;;;;;;;14.96;59.76;101638.63;5092033;28;19912;-56
2023/06/17 01:32:05;;;;;;;;;;;;;;;14.85;59.89;101643.53;5087463;28;20290;-57
2023/06/17 01:34:30;;;;;;;;;;;;;;;14.78;59.78;101640.78;5091461;28;20026;-57
2023/06/17 01:36:56;;;;;;;;;;;;;;;14.72;60.16;101644.09;5097477;28;20387;-57
2023/06/17 01:39:23;;;;;;;;;;;;;;;14.65;60.84;101637.91;5103237;28;19912;-57
2023/06/17 01:41:52;;;;;;;;;;;;;;;14.61;61.49;101635.19;5103848;28;19912;-57
2023/06/17 01:44:19;;;;;;;;;;;;;;;14.58;61.13;101632.56;5104682;28;19922;-58
2023/06/17 01:46:44;;;;;;;;;;;;;;;14.58;60.93;101632.56;5103444;28;19923;-57
2023/06/17 01:49:10;;;;;;;;;;;;;;;14.54;61.27;101628.13;5105095;28;19922;-57
2023/06/17 01:51:35;;;;;;;;;;;;;;;14.52;60.93;101630.69;5100043;28;20419;-56
2023/06/17 01:54:00;;;;;;;;;;;;;;;14.49;60.76;101636.66;5104793;28;19931;-57
2023/06/17 01:56:26;;;;;;;;;;;;;;;14.45;61.17;101637.41;5096706;28;19923;-57
2023/06/17 01:58:51;;;;;;;;;;;;;;;14.41;61.06;101630.41;5111967;28;20340;-57
2023/06/17 02:01:17;;;;;;;;;;;;;;;14.39;62.16;101631.22;5083856;28;19946;-57
2023/06/17 02:03:42;;;;;;;;;;;;;;;14.37;62.03;101638.91;5093101;28;19920;-48
2023/06/17 02:06:08;;;;;;;;;;;;;;;14.37;61.76;101638.91;5097747;28;19917;-48
2023/06/17 02:08:34;;;;;;;;;;;;;;;14.36;61.67;101641.47;5092594;28;19916;-48
2023/06/17 02:11:00;;;;;;;;;;;;;;;14.32;62.04;101637.03;5093312;28;19920;-47
2023/06/17 02:13:25;;;;;;;;;;;;;;;14.29;61.50;101626.63;5094036;28;19916;-48
2023/06/17 02:15:51;;;;;;;;;;;;;;;14.28;61.92;101633.53;5090989;28;20374;-45
2023/06/17 02:18:17;;;;;;;;;;;;;;;14.26;62.61;101624.84;5097296;28;20065;-49
2023/06/17 02:20:44;;;;;;;;;;;;;;;14.29;63.28;101622.34;5089178;28;19916;-47
2023/06/17 02:23:09;;;;;;;;;;;;;;;14.29;64.15;101624.91;5077369;28;19916;-46
2023/06/17 02:25:36;;;;;;;;;;;;;;;14.28;64.75;101625.75;5091428;28;19922;-48
2023/06/17 02:28:01;;;;;;;;;;;;;;;14.28;64.95;101615.41;5091519;28;19924;-47
2023/06/17 02:30:27;;;;;;;;;;;;;;;14.28;64.79;101617.13;5083231;28;19916;-48
2023/06/17 02:32:52;;;;;;;;;;;;;;;14.28;64.75;101617.13;5084379;28;20283;-48
2023/06/17 02:35:18;;;;;;;;;;;;;;;14.26;64.83;101621.38;5083443;28;19917;-46
2023/06/17 02:37:43;;;;;;;;;;;;;;;14.25;64.19;101617.03;5080381;28;20382;-50
2023/06/17 02:40:09;;;;;;;;;;;;;;;14.21;64.35;101619.56;5094343;28;19951;-47
2023/06/17 02:42:37;;;;;;;;;;;;;;;14.19;64.80;101613.44;5085224;28;19920;-48
2023/06/17 02:45:04;;;;;;;;;;;;;;;14.17;66.00;101614.25;5089976;28;19940;-47
2023/06/17 02:47:29;;;;;;;;;;;;;;;14.14;66.23;101609.03;5078272;28;19920;-49
2023/06/17 02:49:55;;;;;;;;;;;;;;;14.08;66.79;101609.75;5089640;28;19921;-57
2023/06/17 02:52:21;;;;;;;;;;;;;;;13.99;66.94;101609.50;5097769;28;20271;-57
2023/06/17 02:54:46;;;;;;;;;;;;;;;13.91;67.13;101606.72;5073633;28;19920;-58
2023/06/17 02:57:11;;;;;;;;;;;;;;;13.85;67.67;101605.69;5078237;28;19923;-58
2023/06/17 02:59:37;;;;;;;;;;;;;;;13.78;68.18;101596.88;5098375;28;19920;-57
2023/06/17 03:02:03;;;;;;;;;;;;;;;13.73;68.88;101601.06;5109438;28;19931;-58
2023/06/17 03:04:34;;;;;;;;;;;;;;;13.69;68.79;101605.25;5112116;28;19911;-57
2023/06/17 03:07:00;;;;;;;;;;;;;;;13.63;68.87;101597.34;5108318;28;19920;-57
2023/06/17 03:09:26;;;;;;;;;;;;;;;13.60;68.02;101606.72;5102675;28;19916;-57
2023/06/17 03:11:51;;;;;;;;;;;;;;;13.54;66.75;101604.84;5091717;28;19919;-58
2023/06/17 03:14:19;;;;;;;;;;;;;;;13.48;67.85;101598.66;5090990;28;19924;-58
2023/06/17 03:16:45;;;;;;;;;;;;;;;13.46;68.81;101601.16;5107140;27;19924;-57
2023/06/17 03:19:10;;;;;;;;;;;;;;;13.45;69.26;101601.13;5101708;28;19969;-58
2023/06/17 03:21:40;;;;;;;;;;;;;;;13.41;69.32;101606.22;5113222;28;20348;-57
2023/06/17 03:24:06;;;;;;;;;;;;;;;13.41;67.11;101598.47;5093102;28;19943;-57
2023/06/17 03:26:31;;;;;;;;;;;;;;;13.39;67.64;101596.66;5103737;28;20330;-57
2023/06/17 03:28:57;;;;;;;;;;;;;;;13.35;67.30;101597.44;5093232;28;20405;-57
2023/06/17 03:31:23;;;;;;;;;;;;;;;13.30;68.75;101594.72;5102311;28;20390;-48
2023/06/17 03:33:50;;;;;;;;;;;;;;;13.27;67.87;101599.75;5106167;28;19931;-48
2023/06/17 03:36:17;;;;;;;;;;;;;;;13.29;68.12;101594.66;5103585;28;20346;-57
2023/06/17 03:38:42;;;;;;;;;;;;;;;13.31;67.22;101595.56;5112034;28;20298;-58
2023/06/17 03:41:08;;;;;;;;;;;;;;;13.34;66.95;101593.94;5112521;28;19924;-49
2023/06/17 03:43:33;;;;;;;;;;;;;;;13.39;66.51;101599.25;5083944;28;19917;-46
2023/06/17 03:45:58;;;;;;;;;;;;;;;13.41;67.89;101587.28;5091622;28;19941;-46
2023/06/17 03:48:23;;;;;;;;;;;;;;;13.43;68.36;101588.19;5096986;28;19927;-47
2023/06/17 03:50:49;;;;;;;;;;;;;;;13.43;68.81;101592.47;5090657;28;19916;-45
2023/06/17 03:53:15;;;;;;;;;;;;;;;13.43;68.52;101587.31;5091771;28;19928;-48
2023/06/17 03:55:41;;;;;;;;;;;;;;;13.46;68.91;101592.53;5091568;28;20287;-46
2023/06/17 03:58:06;;;;;;;;;;;;;;;13.46;68.66;101595.13;5092040;28;19952;-46
2023/06/17 04:00:32;;;;;;;;;;;;;;;13.48;68.69;101594.34;5111405;28;20007;-46
2023/06/17 04:02:57;;;;;;;;;;;;;;;13.53;68.17;101587.59;5099954;27;19959;-49
2023/06/17 04:05:23;;;;;;;;;;;;;;;13.58;68.16;101587.72;5085216;28;19972;-46
2023/06/17 04:07:49;;;;;;;;;;;;;;;13.64;67.59;101587.88;5092421;28;19920;-46
2023/06/17 04:10:14;;;;;;;;;;;;;;;13.69;69.60;101589.75;5094178;28;19923;-45
2023/06/17 04:12:41;;;;;;;;;;;;;;;13.74;69.07;101595.06;5102754;28;19955;-46
2023/06/17 04:15:07;;;;;;;;;;;;;;;13.77;67.19;101589.97;5093342;28;19916;-47
2023/06/17 04:17:32;;;;;;;;;;;;;;;13.83;67.97;101594.41;5104108;28;19912;-46
2023/06/17 04:20:05;;;;;;;;;;;;;;;13.94;69.54;101591.28;5096191;28;19970;-47
2023/06/17 04:22:30;;;;;;;;;;;;;;;14.48;67.63;101593.50;5080357;28;20328;-48
2023/06/17 04:24:55;;;;;;;;;;;;;;;15.29;63.46;101589.25;5094145;28;20430;-50
2023/06/17 04:27:21;;;;;;;;;;;;;;;16.07;63.36;101585.53;5102522;28;20319;-50
2023/06/17 04:29:47;;;;;;;;;;;;;;;16.82;61.57;101584.16;5111293;28;19995;-49
2023/06/17 04:32:15;;;;;;;;;;;;;;;17.47;59.88;101580.63;5111332;28;19916;-48
2023/06/17 04:34:42;;;;;;;;;;;;;;;18.10;57.28;101585.63;5110546;28;19920;-47
2023/06/17 04:37:08;;;;;;;;;;;;;;;18.70;55.55;101581.78;5102164;28;19954;-46
2023/06/17 04:39:34;;;;;;;;;;;;;;;19.27;53.93;101582.03;5092797;28;20334;-45
2023/06/17 04:42:00;;;;;;;;;;;;;;;19.76;53.36;101588.28;5076012;28;20043;-46
2023/06/17 04:44:26;;;;;;;;;;;;;;;20.26;51.92;101581.34;5093936;28;19969;-47
2023/06/17 04:46:52;;;;;;;;;;;;;;;20.50;51.25;101581.34;5097865;28;19915;-48
2023/06/17 04:49:17;;;;;;;;;;;;;;;20.69;51.27;101584.84;5107984;28;19927;-45
2023/06/17 04:51:42;;;;;;;;;;;;;;;21.01;51.04;101595.19;5102428;28;19920;-45
2023/06/17 04:54:08;;;;;;;;;;;;;;;21.35;50.62;101592.44;5093543;28;20176;-47
2023/06/17 04:56:33;;;;;;;;;;;;;;;21.59;49.94;101588.84;5102225;28;20317;-46
2023/06/17 04:58:59;;;;;;;;;;;;;;;21.80;49.77;101593.94;5094036;28;19918;-48
2023/06/17 05:01:25;;;;;;;;;;;;;;;22.00;49.51;101588.56;5095931;28;19913;-50
2023/06/17 05:03:50;;;;;;;;;;;;;;;22.27;49.29;101590.16;5100227;28;20374;-45
2023/06/17 05:06:15;;;;;;;;;;;;;;;22.54;48.51;101596.88;5079978;28;20001;-46
2023/06/17 05:08:40;;;;;;;;;;;;;;;22.69;47.94;101599.34;5092119;28;19938;-46
2023/06/17 05:11:06;;;;;;;;;;;;;;;22.80;48.27;101603.59;5094479;28;19923;-48
2023/06/17 05:13:31;;;;;;;;;;;;;;;22.95;47.21;101601.72;5103028;28;20286;-46
2023/06/17 05:15:56;;;;;;;;;;;;;;;23.02;47.15;101600.75;5096447;28;19930;-50
2023/06/17 05:18:22;;;;;;;;;;;;;;;23.09;47.46;101600.66;5092267;28;20283;-46
2023/06/17 05:20:47;;;;;;;;;;;;;;;23.24;47.79;101592.63;5108109;28;20387;-46
2023/06/17 05:23:12;;;;;;;;;;;;;;;23.54;47.08;101597.47;5094162;28;20006;-46
2023/06/17 05:25:37;;;;;;;;;;;;;;;23.85;46.45;101601.44;5112349;28;19920;-46
2023/06/17 05:28:06;;;;;;;;;;;;;;;23.67;46.30;101597.31;5105783;28;20427;-45
2023/06/17 05:30:31;;;;;;;;;;;;;;;23.45;47.39;101594.94;5091034;28;19947;-47
2023/06/17 05:32:57;;;;;;;;;;;;;;;23.79;46.48;101594.50;5113430;28;19969;-49
2023/06/17 05:35:22;;;;;;;;;;;;;;;24.02;45.43;101596.75;5114737;28;20343;-49
2023/06/17 05:37:47;;;;;;;;;;;;;;;24.18;45.70;101593.00;5112552;28;19923;-49
2023/06/17 05:40:13;;;;;;;;;;;;;;;24.47;45.15;101594.31;5094061;28;20006;-49
2023/06/17 05:42:38;;;;;;;;;;;;;;;24.70;44.28;101599.13;5075358;28;20011;-48
2023/06/17 05:45:04;;;;;;;;;;;;;;;24.63;44.16;101597.50;5111809;28;19911;-46
2023/06/17 05:47:29;;;;;;;;;;;;;;;24.58;44.43;101592.34;5108604;28;19916;-46
2023/06/17 05:49:54;;;;;;;;;;;;;;;24.61;44.96;101587.00;5112528;28;19915;-46
2023/06/17 05:52:20;;;;;;;;;;;;;;;24.67;44.91;101586.91;5101264;28;20006;-46
2023/06/17 05:54:45;;;;;;;;;;;;;;;24.60;45.21;101591.41;5101857;28;19920;-48
2023/06/17 05:57:11;;;;;;;;;;;;;;;24.59;45.66;101600.19;5101939;28;19924;-49
2023/06/17 05:59:36;;;;;;;;;;;;;;;24.52;45.35;101589.81;5099319;28;19916;-49
2023/06/17 06:02:01;;;;;;;;;;;;;;;24.38;45.59;101600.56;5103436;28;19916;-49
2023/06/17 06:04:26;;;;;;;;;;;;;;;24.51;45.52;101602.13;5112856;28;19932;-48
2023/06/17 06:06:52;;;;;;;;;;;;;;;24.95;45.02;101603.03;5088433;28;19969;-45
2023/06/17 06:09:17;;;;;;;;;;;;;;;25.40;43.59;101600.34;5110148;28;19924;-47
2023/06/17 06:11:42;;;;;;;;;;;;;;;25.50;43.47;101593.13;5093666;28;19920;-48
2023/06/17 06:14:07;;;;;;;;;;;;;;;25.41;43.21;101594.19;5095230;28;19935;-49
2023/06/17 06:16:33;;;;;;;;;;;;;;;25.35;44.23;101602.22;5098071;28;20359;-47
2023/06/17 06:18:58;;;;;;;;;;;;;;;25.27;43.59;101598.88;5102668;28;19951;-47
2023/06/17 06:21:23;;;;;;;;;;;;;;;25.20;43.67;101594.66;5112853;28;19920;-50
2023/06/17 06:23:49;;;;;;;;;;;;;;;25.21;44.58;101589.34;5071036;28;19972;-47
2023/06/17 06:26:14;;;;;;;;;;;;;;;25.33;43.39;101589.09;5101850;28;19923;-57
2023/06/17 06:28:39;;;;;;;;;;;;;;;25.27;43.93;101594.50;5093177;28;19965;-56
2023/06/17 06:31:05;;;;;;;;;;;;;;;25.32;43.90;101603.16;5097520;28;20383;-56
2023/06/17 06:33:30;;;;;;;;;;;;;;;25.42;43.86;101595.91;5080384;28;19927;-56
2023/06/17 06:35:55;;;;;;;;;;;;;;;25.56;43.67;101601.75;5101108;28;19920;-56
2023/06/17 06:38:21;;;;;;;;;;;;;;;25.82;43.09;101598.53;5100951;28;19961;-57
2023/06/17 06:40:46;;;;;;;;;;;;;;;25.80;41.95;101597.72;5093387;28;19919;-57
2023/06/17 06:43:11;;;;;;;;;;;;;;;25.66;42.46;101592.75;5111539;28;19916;-57
2023/06/17 06:45:36;;;;;;;;;;;;;;;25.69;42.69;101602.34;5112303;28;19977;-57
2023/06/17 06:48:02;;;;;;;;;;;;;;;25.71;42.39;101600.53;5113361;28;19915;-57
2023/06/17 06:50:27;;;;;;;;;;;;;;;25.65;42.82;101590.13;5110388;28;20390;-57
2023/06/17 06:52:52;;;;;;;;;;;;;;;25.63;42.25;101599.84;5093554;28;19938;-56
2023/06/17 06:55:18;;;;;;;;;;;;;;;25.61;41.78;101602.53;5097418;28;19926;-57
2023/06/17 06:57:43;;;;;;;;;;;;;;;25.56;41.68;101600.91;5094513;28;19916;-57
2023/06/17 07:00:11;;;;;;;;;;;;;;;25.46;41.25;101604.63;5102667;28;19923;-56
2023/06/17 07:02:37;;;;;;;;;;;;;;;25.35;41.98;101600.44;5098136;28;19915;-56
2023/06/17 07:05:04;;;;;;;;;;;;;;;25.35;41.82;101600.44;5092064;28;20437;-57
2023/06/17 07:07:29;;;;;;;;;;;;;;;25.53;39.52;101599.19;5093468;28;19916;-57
2023/06/17 07:09:54;;;;;;;;;;;;;;;25.69;40.66;101591.81;5080157;28;19912;-57
2023/06/17 07:12:20;;;;;;;;;;;;;;;25.81;40.43;101596.81;5088773;28;19923;-57
2023/06/17 07:14:45;;;;;;;;;;;;;;;25.87;39.59;101601.94;5085864;28;19927;-57
2023/06/17 07:17:10;;;;;;;;;;;;;;;25.84;40.13;101598.50;5097347;28;19962;-56
2023/06/17 07:19:36;;;;;;;;;;;;;;;25.77;39.18;101596.91;5100856;28;20369;-57
2023/06/17 07:22:01;;;;;;;;;;;;;;;25.60;39.58;101597.28;5093870;28;20294;-56
2023/06/17 07:24:26;;;;;;;;;;;;;;;25.69;39.62;101591.81;5078664;28;20030;-56
2023/06/17 07:26:51;;;;;;;;;;;;;;;25.74;38.71;101599.66;5085351;28;20310;-56
2023/06/17 07:29:17;;;;;;;;;;;;;;;25.64;39.26;101593.69;5089560;28;19920;-57
2023/06/17 07:31:42;;;;;;;;;;;;;;;25.63;37.90;101591.94;5085089;28;19921;-57
2023/06/17 07:34:07;;;;;;;;;;;;;;;25.58;38.59;101597.31;5089879;28;19961;-57
2023/06/17 07:36:33;;;;;;;;;;;;;;;25.60;38.58;101592.91;5082823;28;19916;-55
2023/06/17 07:38:58;;;;;;;;;;;;;;;25.73;37.32;101601.41;5076212;28;20294;-56
2023/06/17 07:41:24;;;;;;;;;;;;;;;25.87;37.08;101596.69;5091437;28;19912;-57
2023/06/17 07:43:49;;;;;;;;;;;;;;;26.04;37.02;101598.91;5082292;28;20358;-56
2023/06/17 07:46:15;;;;;;;;;;;;;;;26.01;37.36;101598.09;5093802;28;19992;-57
2023/06/17 07:48:41;;;;;;;;;;;;;;;25.97;37.70;101594.69;5091104;28;19942;-56
2023/06/17 07:51:06;;;;;;;;;;;;;;;26.01;37.34;101592.84;5092255;28;19977;-56
2023/06/17 07:53:31;;;;;;;;;;;;;;;26.03;37.10;101591.91;5095596;28;20458;-56
2023/06/17 07:55:56;;;;;;;;;;;;;;;26.08;35.72;101590.00;5097088;28;19943;-57
2023/06/17 07:58:22;;;;;;;;;;;;;;;26.12;36.47;101590.81;5107561;28;19943;-56
2023/06/17 08:00:47;;;;;;;;;;;;;;;26.17;35.89;101587.16;5104149;28;19915;-56
2023/06/17 08:03:13;;;;;;;;;;;;;;;26.16;34.56;101587.19;5093616;28;19923;-56
2023/06/17 08:05:39;;;;;;;;;;;;;;;26.13;34.38;101590.75;5106349;28;19923;-56
2023/06/17 08:08:04;;;;;;;;;;;;;;;26.10;36.43;101588.22;5118445;27;19972;-56
2023/06/17 08:10:29;;;;;;;;;;;;;;;26.16;35.05;101592.47;5113858;27;19920;-56
2023/06/17 08:12:55;;;;;;;;;;;;;;;26.16;35.99;101581.94;5112527;27;19916;-56
2023/06/17 08:15:20;;;;;;;;;;;;;;;26.30;34.82;101579.78;5105509;27;20374;-57
2023/06/17 08:17:48;;;;;;;;;;;;;;;26.38;33.89;101580.44;5106999;27;19923;-57
2023/06/17 08:20:13;;;;;;;;;;;;;;;26.36;34.24;101574.34;5113019;27;20271;-56
2023/06/17 08:22:39;;;;;;;;;;;;;;;26.27;34.37;101584.25;5116609;27;19922;-56
2023/06/17 08:25:04;;;;;;;;;;;;;;;26.32;34.42;101583.25;5113014;27;20336;-57
2023/06/17 08:27:30;;;;;;;;;;;;;;;26.51;34.72;101581.00;5113308;27;19919;-58
2023/06/17 08:29:55;;;;;;;;;;;;;;;26.66;34.28;101580.63;5113497;28;19922;-57
2023/06/17 08:32:20;;;;;;;;;;;;;;;26.78;33.71;101578.53;5109738;28;19916;-59
2023/06/17 08:34:46;;;;;;;;;;;;;;;26.90;33.53;101565.88;5112895;28;20348;-56
2023/06/17 08:37:11;;;;;;;;;;;;;;;26.92;33.38;101571.09;5112970;28;19923;-57
2023/06/17 08:39:39;;;;;;;;;;;;;;;26.76;33.22;101569.81;5111269;28;20191;-56
2023/06/17 08:42:05;;;;;;;;;;;;;;;26.63;33.44;101567.50;5108210;28;20401;-57
2023/06/17 08:44:32;;;;;;;;;;;;;;;26.69;33.87;101572.59;5108216;28;19916;-56
2023/06/17 08:47:00;;;;;;;;;;;;;;;26.96;33.78;101570.09;5107575;28;19912;-57
2023/06/17 08:49:26;;;;;;;;;;;;;;;27.12;33.60;101575.81;5106337;28;19916;-57
2023/06/17 08:51:52;;;;;;;;;;;;;;;27.26;32.50;101574.50;5105945;28;19916;-56
2023/06/17 08:54:18;;;;;;;;;;;;;;;27.39;32.66;101569.72;5108050;27;20469;-57
2023/06/17 08:56:44;;;;;;;;;;;;;;;27.51;31.80;101569.34;5115949;27;19915;-57
2023/06/17 08:59:09;;;;;;;;;;;;;;;27.57;32.28;101575.34;5091389;28;19927;-57
2023/06/17 09:01:36;;;;;;;;;;;;;;;27.60;32.68;101565.53;5108288;27;19915;-57
2023/06/17 09:04:01;;;;;;;;;;;;;;;27.66;32.75;101569.75;5108209;27;19911;-57
2023/06/17 09:06:28;;;;;;;;;;;;;;;27.70;31.89;101568.78;5110470;27;20613;-57
2023/06/17 09:08:55;;;;;;;;;;;;;;;27.73;32.01;101569.56;5114073;27;19999;-57
2023/06/17 09:11:21;;;;;;;;;;;;;;;27.67;31.69;101572.38;5116080;27;19922;-56
2023/06/17 09:13:50;;;;;;;;;;;;;;;27.32;32.74;101572.59;5121211;27;20018;-57
2023/06/17 09:16:16;;;;;;;;;;;;;;;27.04;32.89;101567.25;5117852;27;20400;-48
2023/06/17 09:18:42;;;;;;;;;;;;;;;26.79;33.60;101567.09;5115168;27;19950;-46
2023/06/17 09:21:07;;;;;;;;;;;;;;;26.79;32.81;101567.09;5116073;27;19951;-47
2023/06/17 09:23:32;;;;;;;;;;;;;;;26.76;32.79;101562.78;5113898;27;20395;-47
2023/06/17 09:26:04;;;;;;;;;;;;;;;26.80;31.85;101563.53;5113888;27;19920;-49
2023/06/17 09:28:29;;;;;;;;;;;;;;;26.94;31.97;101561.38;5111433;27;20007;-47
2023/06/17 09:30:57;;;;;;;;;;;;;;;27.13;31.13;101570.50;5110265;28;19983;-46
2023/06/17 09:33:23;;;;;;;;;;;;;;;27.26;30.63;101566.59;5112690;27;19927;-48
2023/06/17 09:35:59;;;;;;;;;;;;;;;27.32;30.61;101564.69;5113945;27;19923;-44
2023/06/17 09:38:25;;;;;;;;;;;;;;;27.35;30.34;101572.50;5098301;27;19959;-46
2023/06/17 09:40:51;;;;;;;;;;;;;;;27.34;31.33;101563.72;5126830;27;19925;-45
2023/06/17 09:43:16;;;;;;;;;;;;;;;27.23;30.63;101561.38;5115409;27;19923;-47
2023/06/17 09:45:44;;;;;;;;;;;;;;;27.21;31.71;101557.09;5114671;27;19915;-54
2023/06/17 09:48:10;;;;;;;;;;;;;;;27.36;30.72;101555.72;5115339;27;19923;-55
2023/06/17 09:50:37;;;;;;;;;;;;;;;27.41;31.21;101562.59;5118575;27;19911;-54
2023/06/17 09:53:02;;;;;;;;;;;;;;;27.47;29.29;101558.91;5114670;27;20411;-53
2023/06/17 09:55:28;;;;;;;;;;;;;;;27.47;30.78;101561.56;5114668;27;19919;-56
2023/06/17 09:57:54;;;;;;;;;;;;;;;27.53;30.83;101558.72;5110653;27;19912;-54
2023/06/17 10:00:21;;;;;;;;;;;;;;;27.67;30.43;101559.16;5115295;27;19985;-53
2023/06/17 10:02:46;;;;;;;;;;;;;;;27.77;30.38;101555.31;5109343;28;19919;-56
2023/06/17 10:05:12;;;;;;;;;;;;;;;27.82;29.33;101559.59;5104816;28;19924;-55
2023/06/17 10:07:39;;;;;;;;;;;;;;;27.89;30.14;101562.00;5112408;27;19919;-56
2023/06/17 10:10:08;;;;;;;;;;;;;;;27.95;30.00;101559.13;5114102;27;19916;-54
2023/06/17 10:12:36;;;;;;;;;;;;;;;28.12;29.45;101550.66;5112978;27;20405;-54
2023/06/17 10:15:02;;;;;;;;;;;;;;;28.22;29.82;101551.22;5114229;28;19976;-54
2023/06/17 10:17:28;;;;;;;;;;;;;;;28.38;29.27;101547.13;5117295;27;19999;-54
2023/06/17 10:19:54;;;;;;;;;;;;;;;28.43;29.21;101539.91;5100411;28;20290;-55
2023/06/17 10:22:21;;;;;;;;;;;;;;;28.40;29.00;101547.09;5114246;27;20314;-56
2023/06/17 10:24:47;;;;;;;;;;;;;;;28.45;28.50;101545.13;5115755;27;20378;-54
2023/06/17 10:27:13;;;;;;;;;;;;;;;28.21;28.76;101539.78;5098734;28;20393;-53
2023/06/17 10:29:45;;;;;;;;;;;;;;;28.01;29.90;101545.72;5107659;28;19916;-51
2023/06/17 10:32:18;;;;;;;;;;;;;;;27.67;30.03;101537.16;5107901;27;19947;-54
2023/06/17 10:35:03;;;;;;;;;;;;;;;27.57;29.56;101536.59;5116713;27;19949;-54
2023/06/17 10:37:28;;;;;;;;;;;;;;;27.63;29.62;101532.88;5114174;27;20022;-54
2023/06/17 10:39:53;;;;;;;;;;;;;;;27.63;29.51;101531.09;5112903;28;19916;-47
2023/06/17 10:42:24;;;;;;;;;;;;;;;27.61;29.66;101527.66;5115340;27;20014;-48
2023/06/17 10:44:49;;;;;;;;;;;;;;;27.75;29.68;101525.44;5114036;27;20386;-46
2023/06/17 10:47:18;;;;;;;;;;;;;;;27.80;29.73;101533.25;5117332;27;20032;-49
2023/06/17 10:49:43;;;;;;;;;;;;;;;27.74;29.06;101526.38;5119707;27;19936;-44
2023/06/17 10:52:12;;;;;;;;;;;;;;;27.79;29.42;101523.59;5114467;27;19970;-48
2023/06/17 10:54:43;;;;;;;;;;;;;;;27.75;29.15;101528.09;5115845;27;19915;-48
2023/06/17 10:57:08;;;;;;;;;;;;;;;27.69;29.22;101516.88;5117451;27;19916;-46
2023/06/17 10:59:33;;;;;;;;;;;;;;;27.58;28.57;101522.47;5122491;27;19915;-47
2023/06/17 11:02:01;;;;;;;;;;;;;;;27.45;29.88;101514.06;5112577;27;19920;-46
2023/06/17 11:04:32;;;;;;;;;;;;;;;27.49;29.16;101515.72;5124053;27;20010;-49
2023/06/17 11:06:58;;;;;;;;;;;;;;;27.59;28.85;101515.41;5113990;27;20011;-47
2023/06/17 11:09:24;;;;;;;;;;;;;;;27.77;28.91;101506.91;5118087;27;19958;-54
2023/06/17 11:11:49;;;;;;;;;;;;;;;27.84;28.44;101516.34;5114250;27;19943;-53
2023/06/17 11:14:17;;;;;;;;;;;;;;;27.98;28.22;101505.31;5112988;28;19924;-54
2023/06/17 11:16:42;;;;;;;;;;;;;;;28.17;28.13;101501.13;5120832;27;19912;-54
2023/06/17 11:19:07;;;;;;;;;;;;;;;28.17;27.30;101506.41;5100292;28;19927;-54
2023/06/17 11:21:33;;;;;;;;;;;;;;;28.19;27.60;101509.84;5122021;27;19971;-45
2023/06/17 11:23:58;;;;;;;;;;;;;;;28.25;27.64;101504.34;5122943;27;20771;-47
2023/06/17 11:26:25;;;;;;;;;;;;;;;28.27;27.96;101499.88;5118864;27;19919;-46
2023/06/17 11:28:51;;;;;;;;;;;;;;;28.34;27.46;101495.28;5114604;27;19923;-49
2023/06/17 11:31:16;;;;;;;;;;;;;;;28.40;27.08;101491.53;5121855;27;19955;-47
2023/06/17 11:33:43;;;;;;;;;;;;;;;28.36;27.94;101474.91;5117705;27;20361;-47
2023/06/17 11:36:13;;;;;;;;;;;;;;;28.28;27.76;101485.75;5114788;27;20418;-48
2023/06/17 11:38:39;;;;;;;;;;;;;;;28.16;27.39;101483.53;5113591;27;19945;-49
2023/06/17 11:41:05;;;;;;;;;;;;;;;28.23;27.10;101482.41;5095926;27;20406;-48
2023/06/17 11:43:30;;;;;;;;;;;;;;;28.34;26.45;101473.25;5117728;27;19916;-48
2023/06/17 11:45:58;;;;;;;;;;;;;;;28.54;26.26;101479.53;5095384;28;20360;-49
2023/06/17 11:48:32;;;;;;;;;;;;;;;28.58;26.71;101475.84;5113364;27;20399;-47
2023/06/17 11:50:58;;;;;;;;;;;;;;;28.64;27.48;101464.19;5114017;27;19949;-50
2023/06/17 11:53:29;;;;;;;;;;;;;;;28.74;26.80;101459.38;5112059;28;20403;-48
2023/06/17 11:56:00;;;;;;;;;;;;;;;29.00;26.99;101458.41;5108195;27;20264;-49
2023/06/17 11:58:25;;;;;;;;;;;;;;;29.14;26.24;101466.69;5113976;27;19916;-47
2023/06/17 12:00:51;;;;;;;;;;;;;;;29.08;26.37;101458.97;5112129;27;20014;-46
2023/06/17 12:03:17;;;;;;;;;;;;;;;29.02;26.54;101457.44;5112643;28;19934;-48
2023/06/17 12:05:42;;;;;;;;;;;;;;;29.05;26.31;101448.50;5103071;28;20430;-49
2023/06/17 12:08:08;;;;;;;;;;;;;;;28.96;26.08;101455.03;5117457;27;19920;-47
2023/06/17 12:10:36;;;;;;;;;;;;;;;28.91;26.82;101451.66;5116445;27;19924;-47
2023/06/17 12:13:02;;;;;;;;;;;;;;;28.84;26.57;101451.03;5112543;28;19916;-48
2023/06/17 12:15:28;;;;;;;;;;;;;;;28.85;25.29;101452.75;5094703;28;19922;-50
2023/06/17 12:17:54;;;;;;;;;;;;;;;28.73;25.94;101447.06;5111510;28;19916;-45
2023/06/17 12:20:20;;;;;;;;;;;;;;;28.77;25.68;101459.28;5115750;27;20388;-50
2023/06/17 12:22:47;;;;;;;;;;;;;;;28.70;26.55;101452.50;5117676;27;20078;-49
2023/06/17 12:25:12;;;;;;;;;;;;;;;28.88;26.50;101445.59;5093713;28;19919;-49
2023/06/17 12:27:38;;;;;;;;;;;;;;;29.17;25.84;101448.00;5097729;28;20316;-49
2023/06/17 12:30:04;;;;;;;;;;;;;;;29.44;25.56;101446.03;5124707;28;20130;-50